createdAt,value
2023-04-15T00:01:20.087Z,2.45
2023-04-15T00:03:50.528Z,2.47
2023-04-15T00:06:17.314Z,2.30
2023-04-15T00:08:44.037Z,3.42
2023-04-15T00:11:10.807Z,2.45
2023-04-15T00:13:37.699Z,3.42
2023-04-15T00:16:04.759Z,3.10
2023-04-15T00:18:31.561Z,3.25
2023-04-15T00:20:58.836Z,2.83
2023-04-15T00:23:25.987Z,2.95
2023-04-15T00:25:52.907Z,3.47
2023-04-15T00:28:19.638Z,3.13
2023-04-15T00:30:47.141Z,3.00
2023-04-15T00:33:16.372Z,3.45
2023-04-15T00:35:43.274Z,2.90
2023-04-15T00:38:10.170Z,2.80
2023-04-15T00:40:37.657Z,2.72
2023-04-15T00:43:04.386Z,3.08
2023-04-15T00:45:31.813Z,2.78
2023-04-15T00:47:58.941Z,2.55
2023-04-15T00:50:25.811Z,2.63
2023-04-15T00:52:52.565Z,3.35
2023-04-15T00:55:19.308Z,2.85
2023-04-15T00:57:46.483Z,3.53
2023-04-15T01:00:13.778Z,2.88
2023-04-15T01:02:40.941Z,3.25
2023-04-15T01:05:08.450Z,3.90
2023-04-15T01:07:35.281Z,2.97
2023-04-15T01:10:06.306Z,3.30
2023-04-15T01:12:34.195Z,3.45
2023-04-15T01:15:02.132Z,2.92
2023-04-15T01:17:29.400Z,3.28
2023-04-15T01:19:59.929Z,3.20
2023-04-15T01:22:28.631Z,3.10
2023-04-15T01:25:04.712Z,3.42
2023-04-15T01:27:32.185Z,2.70
2023-04-15T01:29:58.881Z,3.35
2023-04-15T01:32:25.832Z,2.70
2023-04-15T01:34:52.706Z,2.80
2023-04-15T01:37:19.514Z,2.75
2023-04-15T01:39:46.255Z,2.70
2023-04-15T01:42:12.990Z,3.00
2023-04-15T01:44:39.808Z,3.00
2023-04-15T01:47:06.845Z,2.95
2023-04-15T01:49:33.674Z,2.90
2023-04-15T01:52:00.573Z,3.65
2023-04-15T01:54:27.536Z,3.08
2023-04-15T01:56:54.310Z,3.20
2023-04-15T01:59:21.185Z,3.20
2023-04-15T02:01:47.948Z,3.60
2023-04-15T02:04:17.207Z,2.70
2023-04-15T02:06:44.155Z,2.95
2023-04-15T02:09:11.032Z,2.45
2023-04-15T02:11:37.804Z,2.85
2023-04-15T02:14:05.735Z,3.17
2023-04-15T02:16:32.865Z,3.28
2023-04-15T02:19:00.920Z,3.22
2023-04-15T02:21:27.890Z,3.08
2023-04-15T02:23:56.201Z,2.90
2023-04-15T02:26:23.254Z,3.08
2023-04-15T02:28:51.332Z,2.92
2023-04-15T02:31:18.251Z,2.60
2023-04-15T02:33:45.337Z,3.10
2023-04-15T02:36:12.369Z,3.13
2023-04-15T02:38:41.212Z,3.15
2023-04-15T02:41:09.424Z,2.40
2023-04-15T02:43:36.223Z,2.50
2023-04-15T02:46:03.030Z,2.75
2023-04-15T02:48:29.794Z,2.92
2023-04-15T02:51:16.010Z,2.67
2023-04-15T02:53:43.263Z,2.75
2023-04-15T02:56:10.073Z,2.90
2023-04-15T02:58:36.851Z,2.90
2023-04-15T03:01:03.811Z,2.88
2023-04-15T03:03:31.105Z,3.67
2023-04-15T03:05:58.071Z,3.55
2023-04-15T03:08:24.878Z,3.80
2023-04-15T03:11:00.719Z,4.13
2023-04-15T03:13:27.576Z,3.78
2023-04-15T03:15:54.506Z,3.83
2023-04-15T03:18:21.625Z,3.50
2023-04-15T03:20:48.333Z,3.10
2023-04-15T03:23:15.352Z,3.75
2023-04-15T03:25:42.382Z,3.92
2023-04-15T03:28:09.302Z,3.42
2023-04-15T03:30:36.107Z,3.30
2023-04-15T03:33:02.935Z,3.20
2023-04-15T03:35:29.840Z,3.83
2023-04-15T03:37:57.076Z,3.05
2023-04-15T03:40:23.819Z,3.55
2023-04-15T03:42:50.602Z,3.60
2023-04-15T03:45:17.378Z,3.53
2023-04-15T03:47:44.221Z,3.75
2023-04-15T03:50:11.541Z,3.38
2023-04-15T03:52:38.598Z,3.47
2023-04-15T03:55:05.753Z,3.90
2023-04-15T03:57:33.159Z,3.83
2023-04-15T04:22:42.293Z,3.20
2023-04-15T04:25:10.286Z,3.90
2023-04-15T04:27:37.151Z,3.90
2023-04-15T04:30:05.401Z,3.40
2023-04-15T04:32:32.250Z,4.60
2023-04-15T04:34:58.993Z,4.32
2023-04-15T04:37:25.828Z,3.95
2023-04-15T04:39:52.557Z,3.97
2023-04-15T04:42:19.321Z,4.60
2023-04-15T04:44:46.321Z,4.60
2023-04-15T04:47:13.894Z,5.47
2023-04-15T04:49:41.143Z,5.60
2023-04-15T04:52:08.661Z,6.70
2023-04-15T04:54:35.794Z,8.27
2023-04-15T04:57:02.977Z,6.82
2023-04-15T04:59:29.757Z,8.18
2023-04-15T05:01:56.963Z,7.22
2023-04-15T05:04:23.923Z,6.63
2023-04-15T05:06:50.896Z,7.88
2023-04-15T05:09:17.787Z,8.07
2023-04-15T05:11:44.521Z,8.05
2023-04-15T05:14:11.429Z,6.93
2023-04-15T05:16:38.235Z,8.57
2023-04-15T05:19:04.970Z,9.15
2023-04-15T05:21:32.050Z,7.82
2023-04-15T05:23:58.864Z,9.40
2023-04-15T05:26:25.629Z,9.60
2023-04-15T05:28:52.336Z,8.65
2023-04-15T05:31:19.446Z,9.90
2023-04-15T05:33:46.371Z,9.30
2023-04-15T05:36:13.291Z,8.55
2023-04-15T05:38:40.058Z,9.10
2023-04-15T05:41:06.815Z,9.07
2023-04-15T05:43:33.685Z,9.05
2023-04-15T05:46:00.545Z,9.10
2023-04-15T05:48:27.324Z,10.48
2023-04-15T05:50:54.200Z,11.25
2023-04-15T05:53:21.533Z,11.07
2023-04-15T05:55:48.246Z,10.95
2023-04-15T05:58:14.993Z,10.43
2023-04-15T06:00:41.757Z,9.68
2023-04-15T06:03:08.578Z,10.30
2023-04-15T06:05:35.645Z,10.57
2023-04-15T06:08:02.584Z,10.63
2023-04-15T06:10:29.446Z,9.85
2023-04-15T06:12:56.274Z,9.85
2023-04-15T06:15:23.301Z,10.23
2023-04-15T06:17:50.076Z,10.38
2023-04-15T06:20:16.906Z,10.57
2023-04-15T06:22:43.705Z,10.52
2023-04-15T06:25:10.926Z,10.40
2023-04-15T06:27:37.723Z,9.60
2023-04-15T06:30:06.390Z,10.55
2023-04-15T06:32:33.602Z,9.98
2023-04-15T06:35:01.103Z,10.20
2023-04-15T06:37:27.810Z,8.93
2023-04-15T06:39:54.550Z,8.50
2023-04-15T06:42:21.577Z,9.57
2023-04-15T06:44:48.305Z,9.82
2023-04-15T06:47:15.296Z,9.70
2023-04-15T06:49:43.054Z,10.52
2023-04-15T06:52:11.320Z,10.20
2023-04-15T06:54:38.074Z,9.77
2023-04-15T06:57:04.857Z,9.65
2023-04-15T06:59:31.722Z,9.38
2023-04-15T07:01:58.522Z,8.93
2023-04-15T07:04:25.608Z,7.72
2023-04-15T07:06:52.615Z,9.65
2023-04-15T07:09:19.752Z,10.05
2023-04-15T07:11:46.575Z,9.38
2023-04-15T07:14:13.319Z,9.77
2023-04-15T07:16:40.107Z,8.52
2023-04-15T07:19:07.341Z,9.18
2023-04-15T07:21:34.068Z,8.98
2023-04-15T07:24:00.781Z,9.52
2023-04-15T07:26:27.526Z,8.75
2023-04-15T07:28:54.229Z,7.90
2023-04-15T07:31:21.098Z,8.50
2023-04-15T07:33:48.037Z,8.63
2023-04-15T07:36:15.332Z,8.57
2023-04-15T07:38:42.574Z,8.38
2023-04-15T07:41:09.456Z,8.25
2023-04-15T07:43:36.169Z,7.32
2023-04-15T07:46:02.949Z,8.85
2023-04-15T07:48:29.728Z,8.15
2023-04-15T07:50:56.752Z,7.85
2023-04-15T07:53:23.484Z,8.32
2023-04-15T07:55:50.705Z,8.13
2023-04-15T07:58:17.410Z,9.07
2023-04-15T08:00:44.672Z,7.60
2023-04-15T08:03:11.808Z,7.18
2023-04-15T08:05:38.708Z,8.57
2023-04-15T08:08:05.472Z,8.20
2023-04-15T08:10:32.224Z,8.50
2023-04-15T08:12:58.976Z,7.25
2023-04-15T08:15:26.545Z,8.38
2023-04-15T08:17:53.390Z,8.15
2023-04-15T08:20:20.637Z,7.80
2023-04-15T08:22:51.707Z,7.93
2023-04-15T08:25:19.906Z,8.00
2023-04-15T08:27:46.633Z,8.18
2023-04-15T08:30:13.904Z,8.15
2023-04-15T08:32:42.629Z,7.90
2023-04-15T08:35:10.359Z,7.47
2023-04-15T08:37:37.079Z,7.45
2023-04-15T08:40:05.003Z,7.15
2023-04-15T08:42:37.427Z,6.63
2023-04-15T08:45:05.712Z,5.95
2023-04-15T08:47:33.686Z,5.05
2023-04-15T08:50:04.303Z,5.32
2023-04-15T08:52:32.145Z,6.13
2023-04-15T08:55:00.252Z,6.88
2023-04-15T08:57:28.976Z,4.60
2023-04-15T08:59:58.851Z,4.55
2023-04-15T09:02:27.308Z,5.13
2023-04-15T09:04:54.391Z,5.13
2023-04-15T09:07:21.248Z,6.18
2023-04-15T09:09:49.386Z,6.15
2023-04-15T09:12:17.131Z,5.85
2023-04-15T09:14:48.026Z,6.50
2023-04-15T09:17:20.603Z,6.97
2023-04-15T09:19:47.738Z,6.60
2023-04-15T09:22:15.396Z,6.53
2023-04-15T09:24:43.311Z,5.40
2023-04-15T09:27:10.199Z,4.20
2023-04-15T09:29:37.411Z,4.07
2023-04-15T09:32:15.465Z,4.00
2023-04-15T09:34:42.841Z,3.88
2023-04-15T09:37:10.899Z,5.25
2023-04-15T09:39:52.462Z,4.57
2023-04-15T09:42:24.601Z,8.70
2023-04-15T09:44:55.230Z,5.20
2023-04-15T09:47:32.545Z,4.78
2023-04-15T09:50:01.510Z,4.22
2023-04-15T09:52:29.313Z,3.40
2023-04-15T09:54:59.618Z,4.50
2023-04-15T09:57:36.244Z,4.28
2023-04-15T10:00:08.946Z,5.65
2023-04-15T10:02:37.065Z,3.95
2023-04-15T10:05:04.681Z,4.97
2023-04-15T10:07:32.602Z,4.32
2023-04-15T10:10:02.383Z,3.22
2023-04-15T10:12:31.095Z,3.92
2023-04-15T10:15:05.004Z,3.10
2023-04-15T10:17:35.272Z,3.72
2023-04-15T10:20:04.644Z,3.40
2023-04-15T10:22:33.093Z,3.50
2023-04-15T10:25:01.066Z,3.58
2023-04-15T10:27:28.714Z,3.70
2023-04-15T10:29:56.821Z,2.30
2023-04-15T10:32:24.770Z,2.50
2023-04-15T10:34:54.545Z,3.20
2023-04-15T10:37:32.934Z,3.92
2023-04-15T10:39:59.650Z,2.88
2023-04-15T10:42:35.131Z,3.63
2023-04-15T10:45:02.069Z,4.40
2023-04-15T10:47:28.916Z,3.75
2023-04-15T10:50:01.053Z,5.57
2023-04-15T10:52:29.354Z,5.88
2023-04-15T10:55:24.577Z,5.10
2023-04-15T10:57:59.224Z,4.65
2023-04-15T11:00:31.429Z,4.53
2023-04-15T11:03:09.444Z,4.80
2023-04-15T11:05:39.382Z,4.47
2023-04-15T11:08:06.083Z,4.00
2023-04-15T11:10:32.703Z,4.03
2023-04-15T11:13:09.343Z,5.05
2023-04-15T11:15:42.455Z,4.85
2023-04-15T11:18:19.014Z,4.53
2023-04-15T11:20:54.860Z,5.80
2023-04-15T11:23:57.645Z,3.10
2023-04-15T11:26:27.193Z,3.42
2023-04-15T11:28:54.522Z,2.97
2023-04-15T11:31:23.185Z,3.08
2023-04-15T11:34:02.180Z,4.13
2023-04-15T11:36:31.888Z,3.80
2023-04-15T11:38:59.766Z,5.18
2023-04-15T11:41:26.808Z,3.58
2023-04-15T11:43:53.687Z,4.30
2023-04-15T11:46:22.945Z,3.88
2023-04-15T11:48:49.821Z,5.20
2023-04-15T11:51:16.652Z,4.22
2023-04-15T11:53:51.129Z,2.50
2023-04-15T11:56:23.338Z,3.92
2023-04-15T11:58:57.068Z,3.25
2023-04-15T12:01:35.936Z,3.70
2023-04-15T12:04:11.916Z,3.20
2023-04-15T12:06:39.103Z,3.10
2023-04-15T12:09:17.997Z,3.75
2023-04-15T12:11:50.936Z,4.07
2023-04-15T12:14:31.916Z,5.88
2023-04-15T12:17:07.892Z,4.20
2023-04-15T12:19:41.693Z,4.30
2023-04-15T12:22:13.852Z,3.22
2023-04-15T12:24:43.807Z,4.15
2023-04-15T12:27:14.206Z,2.85
2023-04-15T12:29:43.112Z,4.47
2023-04-15T12:32:13.424Z,3.58
2023-04-15T12:34:59.600Z,3.92
2023-04-15T12:37:26.353Z,3.92
2023-04-15T12:39:54.268Z,3.80
2023-04-15T12:42:22.447Z,3.92
2023-04-15T12:44:49.227Z,6.13
2023-04-15T12:47:16.082Z,5.88
2023-04-15T12:49:43.159Z,7.47
2023-04-15T12:52:10.005Z,4.00
2023-04-15T12:54:36.822Z,5.75
2023-04-15T12:57:06.828Z,4.22
2023-04-15T12:59:34.569Z,3.22
2023-04-15T13:02:02.693Z,3.83
2023-04-15T13:04:31.063Z,4.05
2023-04-15T13:06:58.311Z,3.83
2023-04-15T13:09:25.144Z,1.83
2023-04-15T13:11:52.578Z,3.75
2023-04-15T13:14:19.418Z,1.98
2023-04-15T13:16:46.310Z,3.70
2023-04-15T13:19:13.071Z,2.13
2023-04-15T13:21:39.806Z,2.00
2023-04-15T13:24:07.277Z,1.63
2023-04-15T13:26:34.214Z,1.52
2023-04-15T13:29:01.802Z,2.58
2023-04-15T13:31:28.703Z,3.08
2023-04-15T13:33:57.138Z,3.92
2023-04-15T13:36:23.853Z,2.42
2023-04-15T13:38:51.452Z,2.15
2023-04-15T13:41:18.628Z,3.10
2023-04-15T13:43:45.552Z,3.17
2023-04-15T13:46:12.578Z,2.47
2023-04-15T13:48:39.523Z,2.38
2023-04-15T13:51:06.330Z,2.00
2023-04-15T13:53:38.374Z,2.20
2023-04-15T13:56:09.981Z,2.38
2023-04-15T13:58:37.762Z,2.50
2023-04-15T14:01:06.740Z,1.77
2023-04-15T14:03:36.574Z,3.08
2023-04-15T14:06:04.781Z,2.05
2023-04-15T14:08:31.674Z,2.65
2023-04-15T14:10:58.404Z,1.40
2023-04-15T14:13:25.265Z,1.60
2023-04-15T14:15:52.053Z,1.83
2023-04-15T14:18:18.797Z,1.50
2023-04-15T14:20:46.040Z,2.10
2023-04-15T14:23:12.756Z,1.90
2023-04-15T14:25:39.702Z,1.67
2023-04-15T14:28:06.544Z,1.80
2023-04-15T14:30:33.618Z,1.70
2023-04-15T14:33:00.464Z,1.90
2023-04-15T14:35:27.366Z,1.10
2023-04-15T14:37:55.573Z,1.45
2023-04-15T14:40:22.797Z,1.30
2023-04-15T14:42:49.689Z,1.30
2023-04-15T14:45:16.565Z,1.58
2023-04-15T14:47:43.825Z,1.40
2023-04-15T14:50:10.866Z,1.20
2023-04-15T14:52:40.294Z,1.20
2023-04-15T14:55:11.890Z,1.38
2023-04-15T14:57:40.594Z,1.60
2023-04-15T15:00:09.870Z,1.35
2023-04-15T15:02:40.150Z,1.20
2023-04-15T15:05:09.553Z,1.20
2023-04-15T15:07:38.171Z,1.30
2023-04-15T15:10:06.014Z,1.20
2023-04-15T15:12:33.674Z,1.30
2023-04-15T15:15:04.882Z,1.40
2023-04-15T15:17:35.464Z,1.58
2023-04-15T15:20:03.543Z,1.85
2023-04-15T15:22:30.419Z,1.77
2023-04-15T15:24:59.117Z,1.52
2023-04-15T15:27:25.878Z,1.30
2023-04-15T15:29:52.629Z,1.60
2023-04-15T15:32:19.432Z,1.50
2023-04-15T15:34:46.191Z,1.42
2023-04-15T15:37:12.926Z,1.30
2023-04-15T15:39:40.042Z,1.40
2023-04-15T15:42:07.550Z,1.60
2023-04-15T15:44:36.173Z,1.27
2023-04-15T15:47:02.989Z,1.23
2023-04-15T15:49:29.778Z,1.30
2023-04-15T15:51:57.677Z,1.23
2023-04-15T15:54:25.003Z,1.40
2023-04-15T15:56:51.729Z,1.30
2023-04-15T15:59:18.474Z,1.25
2023-04-15T16:01:45.408Z,1.63
2023-04-15T16:04:12.436Z,1.48
2023-04-15T16:06:40.397Z,1.23
2023-04-15T16:09:07.236Z,1.40
2023-04-15T16:11:34.062Z,1.30
2023-04-15T16:14:00.867Z,1.50
2023-04-15T16:16:29.145Z,1.10
2023-04-15T16:18:57.763Z,1.10
2023-04-15T16:21:27.337Z,0.80
2023-04-15T16:23:54.199Z,1.02
2023-04-15T16:26:21.664Z,1.23
2023-04-15T16:28:48.429Z,1.05
2023-04-15T16:31:15.275Z,1.10
2023-04-15T16:33:42.019Z,1.30
2023-04-15T16:36:08.732Z,1.00
2023-04-15T16:38:35.439Z,1.10
2023-04-15T16:41:02.613Z,1.00
2023-04-15T16:43:29.574Z,0.98
2023-04-15T16:45:56.367Z,1.00
2023-04-15T16:48:23.120Z,1.25
2023-04-15T16:50:49.879Z,1.70
2023-04-15T16:53:16.828Z,1.33
2023-04-15T16:55:43.542Z,1.40
2023-04-15T16:58:10.371Z,0.95
2023-04-15T17:00:37.269Z,1.50
2023-04-15T17:03:05.113Z,1.00
2023-04-15T17:05:32.054Z,1.27
2023-04-15T17:07:59.200Z,1.70
2023-04-15T17:10:26.665Z,2.10
2023-04-15T17:12:56.276Z,1.60
2023-04-15T17:15:23.287Z,1.00
2023-04-15T17:17:50.083Z,1.13
2023-04-15T17:20:19.526Z,1.27
2023-04-15T17:22:48.413Z,2.17
2023-04-15T17:25:15.865Z,1.92
2023-04-15T17:27:42.650Z,1.55
2023-04-15T17:30:09.888Z,1.60
2023-04-15T17:32:37.175Z,1.45
2023-04-15T17:35:06.330Z,1.80
2023-04-15T17:37:34.244Z,2.00
2023-04-15T17:40:01.185Z,2.10
2023-04-15T17:42:28.006Z,1.83
2023-04-15T17:44:54.719Z,2.25
2023-04-15T17:47:21.586Z,1.98
2023-04-15T17:49:48.316Z,2.05
2023-04-15T17:52:15.097Z,1.50
2023-04-15T17:54:41.932Z,1.80
2023-04-15T17:57:09.510Z,2.20
2023-04-15T17:59:36.306Z,2.70
2023-04-15T18:02:03.130Z,1.88
2023-04-15T18:04:30.407Z,2.30
2023-04-15T18:06:57.321Z,2.60
2023-04-15T18:09:24.022Z,2.17
2023-04-15T18:11:50.780Z,1.30
2023-04-15T18:14:30.587Z,1.83
2023-04-15T18:17:01.157Z,1.70
2023-04-15T18:19:27.978Z,2.70
2023-04-15T18:21:54.726Z,3.58
2023-04-15T18:24:22.260Z,3.55
2023-04-15T18:26:49.385Z,2.20
2023-04-15T18:29:16.352Z,2.20
2023-04-15T18:31:43.255Z,1.67
2023-04-15T18:34:10.131Z,1.38
2023-04-15T18:36:36.898Z,1.45
2023-04-15T18:39:04.340Z,2.22
2023-04-15T18:41:31.322Z,2.17
2023-04-15T18:43:58.093Z,2.42
2023-04-15T18:46:24.943Z,2.08
2023-04-15T18:48:51.679Z,3.10
2023-04-15T18:51:18.426Z,2.75
2023-04-15T18:53:45.512Z,3.45
2023-04-15T18:56:12.263Z,2.65
2023-04-15T18:59:18.457Z,2.83
2023-04-15T19:01:26.272Z,2.95
2023-04-15T19:03:53.049Z,3.28
2023-04-15T19:06:19.907Z,3.25
2023-04-15T19:08:46.626Z,3.10
2023-04-15T19:11:13.387Z,3.28
2023-04-15T19:13:40.691Z,3.38
2023-04-15T19:16:07.491Z,3.78
2023-04-15T19:18:34.301Z,3.88
2023-04-15T19:21:01.196Z,2.95
2023-04-15T19:23:27.932Z,3.17
2023-04-15T19:25:54.693Z,3.70
2023-04-15T19:28:21.426Z,3.28
2023-04-15T19:30:48.189Z,3.15
2023-04-15T19:33:15.217Z,2.80
2023-04-15T19:35:41.973Z,3.03
2023-04-15T19:38:08.765Z,4.47
2023-04-15T19:40:35.565Z,3.00
2023-04-15T19:43:02.294Z,3.08
2023-04-15T19:45:29.020Z,2.85
2023-04-15T19:47:56.040Z,2.65
2023-04-15T19:50:26.150Z,3.10
2023-04-15T19:52:53.809Z,2.72
2023-04-15T19:55:20.823Z,2.60
2023-04-15T19:57:47.537Z,2.30
2023-04-15T20:00:14.587Z,2.50
2023-04-15T20:02:41.430Z,2.38
2023-04-15T20:05:10.095Z,2.53
2023-04-15T20:07:37.182Z,2.90
2023-04-15T20:10:08.641Z,2.95
2023-04-15T20:12:50.054Z,2.60
2023-04-15T20:15:19.404Z,2.90
2023-04-15T20:17:46.188Z,3.10
2023-04-15T20:20:13.066Z,2.70
2023-04-15T20:22:39.862Z,2.92
2023-04-15T20:25:07.322Z,3.13
2023-04-15T20:27:34.141Z,2.45
2023-04-15T20:30:01.078Z,2.78
2023-04-15T20:32:28.321Z,2.38
2023-04-15T20:34:55.223Z,2.58
2023-04-15T20:37:22.304Z,2.53
2023-04-15T20:39:49.152Z,3.13
2023-04-15T20:42:16.090Z,2.97
2023-04-15T20:44:42.830Z,2.75
2023-04-15T20:47:10.862Z,2.70
2023-04-15T20:49:39.577Z,2.97
2023-04-15T20:52:07.848Z,2.58
2023-04-15T20:54:35.218Z,3.15
2023-04-15T20:57:02.015Z,3.13
2023-04-15T20:59:28.882Z,2.55
2023-04-15T21:01:57.006Z,2.58
2023-04-15T21:04:24.421Z,3.05
2023-04-15T21:06:52.218Z,2.53
2023-04-15T21:09:19.236Z,2.67
2023-04-15T21:14:19.671Z,2.50
2023-04-15T21:16:46.515Z,2.58
2023-04-15T21:19:13.320Z,2.13
2023-04-15T21:21:40.149Z,2.78
2023-04-15T21:24:10.188Z,2.38
2023-04-15T21:26:36.932Z,2.45
2023-04-15T21:29:03.954Z,2.60
2023-04-15T21:31:30.828Z,2.65
2023-04-15T21:33:57.582Z,3.05
2023-04-15T21:36:24.421Z,3.40
2023-04-15T21:38:51.190Z,3.10
2023-04-15T21:41:17.967Z,3.20
2023-04-15T21:43:44.835Z,3.33
2023-04-15T21:46:24.394Z,3.15
2023-04-15T21:48:53.535Z,3.20
2023-04-15T21:51:20.475Z,3.40
2023-04-15T21:53:47.212Z,3.30
2023-04-15T21:56:13.932Z,3.28
2023-04-15T21:58:40.765Z,3.33
2023-04-15T22:01:07.532Z,3.17
2023-04-15T22:03:35.237Z,3.20
2023-04-15T22:06:05.308Z,2.85
2023-04-15T22:08:38.668Z,3.00
2023-04-15T22:11:26.272Z,2.67
2023-04-15T22:13:54.038Z,2.53
2023-04-15T22:16:21.071Z,3.05
2023-04-15T22:18:47.844Z,3.65
2023-04-15T22:21:14.692Z,3.05
2023-04-15T22:23:41.548Z,3.25
2023-04-15T22:26:08.309Z,3.13
2023-04-15T22:28:35.067Z,2.95
2023-04-15T22:31:02.224Z,3.60
2023-04-15T22:33:29.325Z,3.10
2023-04-15T22:35:56.566Z,2.92
2023-04-15T22:38:24.481Z,3.00
2023-04-15T22:40:53.806Z,2.97
2023-04-15T22:43:20.697Z,3.00
2023-04-15T22:45:51.276Z,3.15
2023-04-15T22:48:18.902Z,2.83
2023-04-15T22:50:46.029Z,3.20
2023-04-15T22:53:12.913Z,2.80
2023-04-15T22:55:39.664Z,3.08
2023-04-15T22:58:06.424Z,3.15
2023-04-15T23:00:33.169Z,3.10
2023-04-15T23:03:00.233Z,2.88
2023-04-15T23:05:27.670Z,3.65
2023-04-15T23:07:54.525Z,3.22
2023-04-15T23:10:21.392Z,3.20
2023-04-15T23:12:48.169Z,3.20
2023-04-15T23:15:14.962Z,3.15
2023-04-15T23:17:42.644Z,3.22
2023-04-15T23:20:11.149Z,3.20
2023-04-15T23:22:38.250Z,3.00
2023-04-15T23:25:05.768Z,3.42
2023-04-15T23:27:32.598Z,3.20
2023-04-15T23:29:59.315Z,3.45
2023-04-15T23:32:27.248Z,3.33
2023-04-15T23:34:54.095Z,4.10
2023-04-15T23:37:20.902Z,2.60
2023-04-15T23:39:47.630Z,3.30
2023-04-15T23:42:14.358Z,2.75
2023-04-15T23:44:41.181Z,3.33
2023-04-15T23:47:07.992Z,2.92
2023-04-15T23:49:36.453Z,3.00
2023-04-15T23:52:03.396Z,3.25
2023-04-15T23:54:30.256Z,2.92
2023-04-15T23:56:56.992Z,3.50
2023-04-15T23:59:23.717Z,3.03
